MXGP 2018. Gajser e Jonass primi nelle qualifiche in Spagna

MXGP 2018. Gajser e Jonass primi nelle qualifiche in Spagna
Massimo Zanzani
Lo sloveno conferma il suo mordente assicurandosi la qualifica MXGP davanti a Febvre; 4° Cairoli davanti ad Herlings mentre Jonass si conferma nella MX2
24 marzo 2018

Punti chiave

La terza tappa iridata si è aperta con i due litiganti (per il titolo) Tony Cairoli e Jeffrey Herlings che nella manche di qualifica si sono fatti sorprendere da un grintosissimo Tim Gajser che sfruttando la sua buona condizione psicofisica, ritrovata per la prima volta dopo l’incidente di Mantova, ci ha tenuto a sottolineare di non aver gettato i remi in barca e di voler fart parte della partita dei papabili al titolo.

L’ufficiale HRC ha preso subito il comando, ed ha tenuto dietro per tutta la gara Romain Febvre e Gautier Paulin; Tony Cairoli invece l’ha spuntata su Jeffrey Herlings, autore del giro più veloce nelle cronometrate, dopo averlo inseguito per buona parte della gara ed averlo infine scavalcato a due giri dalla fine.

Show invece nella 250, dove il pupillo di casa Jorge Prado è rimasto in scia al compagno di scuderia Pauls Jonass che però ha tenuto duro e in piena sicurezza ha tagliato per primo il traguardo. Terza piazza per lo statunitense Darian autore di una bella rimonta che gli ha permesso di avere la meglio su Thomas Olsen e Hunter Lawrence.

La manche d’apertura dell’Europeo 300 ha registrato la seconda piazza di Manuel Iacopi, che ha concluso dietro all’olandese Mike Kras, mentre quella della quarto di litro è andata all’inglese Mel Pocock, mentre Giuseppe Tropepe ha segnato il miglior piazzamento azzurro concludendo 7°.

 

 

CLASSIFICHE

MXGP - Qualifying Race - Classification
Pos Nr Rider Nat. Fed. Bike Time laps Diff. First Diff. Prev. Bestlaptime in lap Speed
1 243 Gajser, Tim SLO AMZS Honda 25:30.475 13 0:00.000 0:00.000 1:48.744 8 57.2
2 461 Febvre, Romain FRA FFM Yamaha 25:33.902 13 0:03.427 0:03.427 1:48.257 8 57.5
3 21 Paulin, Gautier FRA MCM Husqvarna 25:37.368 13 0:06.893 0:03.466 1:49.445 5 56.9
4 222 Cairoli, Antonio ITA FMI KTM 25:37.839 13 0:07.364 0:00.471 1:49.005 6 57.1
5 84 Herlings, Jeffrey NED KNMV KTM 25:43.680 13 0:13.205 0:05.841 1:49.167 5 57
6 91 Seewer, Jeremy SUI FMS Yamaha 25:44.871 13 0:14.396 0:01.191 1:49.954 4 56.6
7 99 Anstie, Max GBR ACU Husqvarna 25:46.830 13 0:16.355 0:01.959 1:49.594 6 56.8
8 25 Desalle, Clement BEL FMB Kawasaki 25:54.789 13 0:24.314 0:07.959 1:49.757 6 56.7
9 777 Bobryshev, Evgeny RUS MFR Suzuki 26:02.598 13 0:32.123 0:07.809 1:49.863 6 56.6
10 33 Lieber, Julien BEL FMB Kawasaki 26:08.721 13 0:38.246 0:06.123 1:50.435 8 56.3
11 259 Coldenhoff, Glenn NED KNMV KTM 26:10.145 13 0:39.670 0:01.424 1:50.951 6 56.1
12 24 Simpson, Shaun GBR ACU Yamaha 26:15.206 13 0:44.731 0:05.061 1:50.256 4 56.4
13 27 Jasikonis, Arminas LTU LMSF Honda 26:15.796 13 0:45.321 0:00.590 1:51.162 9 56
14 89 Van Horebeek, Jeremy BEL FMB Yamaha 26:16.609 13 0:46.134 0:00.813 1:50.844 7 56.1
15 12 Nagl, Maximilian GER DMSB TM 26:22.195 13 0:51.720 0:05.586 1:51.584 5 55.8
16 22 Strijbos, Kevin BEL FMB KTM 26:25.081 13 0:54.606 0:02.886 1:51.663 8 55.7
17 141 Desprey, Maxime FRA FFM Kawasaki 26:29.671 13 0:59.196 0:04.590 1:52.022 4 55.5
18 55 Irwin, Graeme GBR MCUI KTM 26:31.558 13 1:01.083 0:01.887 1:52.568 4 55.3
19 17 Butron, Jose ESP RFME KTM 26:33.274 13 1:02.799 0:01.716 1:52.774 3 55.2
20 151 Kullas, Harri EST EMF Husqvarna 26:37.232 13 1:06.757 0:03.958 1:51.707 9 55.7

 

MX2 - Qualifying Race - Classification
Pos Nr Rider Nat. Fed. Bike Time laps Diff. First Diff. Prev. Bestlaptime in lap Speed
1 1 Jonass, Pauls LAT LAMSF KTM 24:03.034 12 0:00.000 0:00.000 1:50.734 4 56.2
2 61 Prado, Jorge ESP RFME KTM 24:03.667 12 0:00.633 0:00.633 1:50.811 4 56.2
3 57 Sanayei, Darian USA ACU Kawasaki 24:04.202 12 0:01.168 0:00.535 1:50.165 1 56.5
4 19 Olsen, Thomas Kjer DEN DMU Husqvarna 24:06.652 12 0:03.618 0:02.450 1:50.446 7 56.3
5 96 Lawrence, Hunter AUS MA Honda 24:07.122 12 0:04.088 0:00.470 1:50.743 10 56.2
6 919 Watson, Ben GBR ACU Yamaha 24:25.015 12 0:21.981 0:17.893 1:52.326 4 55.4
7 64 Covington, Thomas USA MUL Husqvarna 24:26.262 12 0:23.228 0:01.247 1:51.896 8 55.6
8 811 Sterry, Adam GBR ACU Kawasaki 24:30.022 12 0:26.988 0:03.760 1:52.456 3 55.3
9 66 Larranaga Olano, Iker ESP RFME Husqvarna 24:32.035 12 0:29.001 0:02.013 1:51.209 5 56
10 14 Beaton, Jed AUS MA Kawasaki 24:34.256 12 0:31.222 0:02.221 1:52.540 7 55.3
11 161 Östlund, Alvin SWE SVEMO Yamaha 24:38.584 12 0:35.550 0:04.328 1:53.130 4 55
12 18 Brylyakov, Vsevolod RUS MFR Yamaha 24:39.140 12 0:36.106 0:00.556 1:52.085 4 55.5
13 98 Vaessen, Bas NED KNMV Honda 24:49.191 12 0:46.157 0:10.051 1:53.128 5 55
14 321 Bernardini, Samuele ITA FMI TM 24:49.601 12 0:46.567 0:00.410 1:52.548 3 55.3
15 426 Mewse, Conrad GBR ACU KTM 24:50.082 12 0:47.048 0:00.481 1:52.789 7 55.2
16 29 Jacobi, Henry GER DMSB Husqvarna 24:52.276 12 0:49.242 0:02.194 1:52.797 6 55.2
17 118 Rubini, Stephen FRA FFM KTM 24:55.513 12 0:52.479 0:03.237 1:52.471 3 55.3
18 10 Vlaanderen, Calvin RSA KNMV Honda 24:59.281 12 0:56.247 0:03.768 1:52.687 2 55.2
19 172 Van doninck, Brent BEL FMB Husqvarna 25:01.319 12 0:58.285 0:02.038 1:53.951 7 54.6
20 70 Fernandez, Ruben ESP RFME Kawasaki 25:02.022 12 0:58.988 0:00.703 1:54.175 6 54.5

Ultime da Motocross

Da Automoto.it

Caricamento commenti...